Main page

Islamabad, Pakistan

Benazir Bhutto International Airport

latitude: 33-37N, longitude: 073-06E, elevation: 507 m

Current weather observation

The report was made 56 minutes ago, at 04:00 UTC
Wind 4 kt from the East
Temperature 26°C
Humidity 58%
Visibility: 5000 m

METAR: OPRN 040400Z 09004KT 5000 HZ NSC 26/17 1015.2/29.98

Time: 09:56 (04:56 UTC)


The report was made 7 hours and 26 minutes ago, at 21:30 UTC
Forecast valid from 04 at 00 UTC to 05 at 06 UTC
Wind 10 kt from the Southwest
Visibility 10 km or more
Few clouds at a height of 4000 ft
Scattered clouds at a height of 10000 ft
from 04 at 01 UTC to 04 at 03 UTC
Wind kt from the North
Visibility: 4000 m
Few clouds at a height of 10000 ft
from 04 at 09 UTC to 04 at 12 UTC
Wind 15 kt from the East with gusts up to 25 kt

TAF: OPRN 032130Z 0400/0506 23010KT 9999 FEW040 SCT100 TEMPO 0401/0403 00000KT 4000 HZ FEW100 TEMPO 0409/0412 10015G25KT


Weather observations and forecasts of more than 4000 airports (METAR and TAF reports).

The available stations are represented by yellow and red dots on the map.

Hover mouse over dot to see the name of the station.

Then click to see weather observations and forecasts.

To change the map : click on the green buttons with a black cross to zoom in, on the green button with a dash to zoom out, or on the green arrows for adjacent maps.